createdAt,value
2019-04-20T00:02:13.761Z,4.20
2019-04-20T00:04:39.045Z,9.03
2019-04-20T00:07:10.208Z,5.20
2019-04-20T00:09:45.573Z,8.47
2019-04-20T00:12:19.369Z,6.23
2019-04-20T00:14:44.170Z,2.83
2019-04-20T00:17:14.309Z,4.20
2019-04-20T00:19:50.169Z,6.10
2019-04-20T00:22:24.662Z,3.83
2019-04-20T00:25:11.890Z,3.97
2019-04-20T00:28:16.496Z,3.60
2019-04-20T00:30:46.970Z,4.93
2019-04-20T00:33:09.531Z,5.60
2019-04-20T00:35:32.126Z,5.23
2019-04-20T00:38:03.361Z,5.03
2019-04-20T00:40:35.602Z,4.57
2019-04-20T00:43:06.662Z,4.33
2019-04-20T00:45:46.947Z,3.73
2019-04-20T00:48:22.664Z,3.47
2019-04-20T00:50:57.241Z,5.17
2019-04-20T00:53:22.888Z,4.50
2019-04-20T00:55:44.487Z,7.47
2019-04-20T00:58:20.052Z,4.20
2019-04-20T01:01:07.302Z,4.60
2019-04-20T01:03:37.734Z,4.23
2019-04-20T01:06:16.272Z,4.23
2019-04-20T01:08:40.211Z,7.30
2019-04-20T01:11:10.569Z,8.87
2019-04-20T01:13:46.111Z,13.60
2019-04-20T01:16:25.485Z,8.40
2019-04-20T01:18:47.241Z,9.10
2019-04-20T01:21:20.294Z,9.27
2019-04-20T01:23:54.569Z,4.57
2019-04-20T01:26:22.506Z,9.53
2019-04-20T01:29:06.776Z,3.87
2019-04-20T01:31:33.622Z,2.93
2019-04-20T01:34:03.058Z,6.43
2019-04-20T01:36:48.001Z,8.10
2019-04-20T01:39:12.519Z,8.03
2019-04-20T01:41:33.037Z,3.10
2019-04-20T01:44:03.149Z,5.10
2019-04-20T01:46:34.686Z,5.57
2019-04-20T01:49:11.599Z,5.13
2019-04-20T01:51:47.256Z,5.97
2019-04-20T01:54:26.117Z,6.23
2019-04-20T01:57:06.270Z,5.27
2019-04-20T01:59:57.743Z,5.57
2019-04-20T02:02:29.558Z,5.13
2019-04-20T02:05:10.274Z,5.20
2019-04-20T02:07:38.823Z,5.77
2019-04-20T02:10:10.503Z,6.33
2019-04-20T02:12:41.222Z,4.27
2019-04-20T02:15:22.165Z,5.77
2019-04-20T02:17:57.746Z,5.87
2019-04-20T02:20:33.058Z,9.27
2019-04-20T02:23:03.162Z,6.67
2019-04-20T02:25:18.733Z,4.77
2019-04-20T02:27:54.842Z,5.93
2019-04-20T02:30:57.992Z,6.90
2019-04-20T02:33:34.934Z,8.90
2019-04-20T02:36:10.358Z,7.23
2019-04-20T02:39:05.561Z,9.83
2019-04-20T02:41:19.856Z,7.13
2019-04-20T02:43:58.138Z,13.03
2019-04-20T02:46:15.247Z,10.20
2019-04-20T02:48:56.830Z,13.93
2019-04-20T02:51:25.254Z,19.67
2019-04-20T02:54:05.627Z,17.53
2019-04-20T02:56:32.374Z,28.37
2019-04-20T02:59:29.682Z,27.03
2019-04-20T03:01:36.391Z,13.77
2019-04-20T03:03:52.580Z,28.37
2019-04-20T03:06:34.579Z,25.83
2019-04-20T03:09:17.262Z,24.77
2019-04-20T03:11:53.886Z,12.93
2019-04-20T03:14:16.415Z,11.03
2019-04-20T03:16:45.512Z,6.80
2019-04-20T03:19:17.419Z,8.77
2019-04-20T03:22:00.107Z,7.10
2019-04-20T03:24:33.184Z,7.77
2019-04-20T03:26:56.896Z,6.70
2019-04-20T03:29:46.923Z,5.63
2019-04-20T03:35:18.245Z,4.63
2019-04-20T03:37:36.436Z,7.20
2019-04-20T03:39:58.027Z,4.73
2019-04-20T03:42:16.111Z,5.10
2019-04-20T03:44:52.912Z,6.70
2019-04-20T03:47:30.579Z,7.13
2019-04-20T03:50:14.734Z,5.77
2019-04-20T03:52:43.062Z,9.53
2019-04-20T03:55:41.959Z,4.93
2019-04-20T03:58:10.073Z,4.53
2019-04-20T04:00:54.258Z,7.10
2019-04-20T04:03:47.249Z,5.60
2019-04-20T04:06:05.450Z,5.37
2019-04-20T04:08:34.409Z,4.20
2019-04-20T04:11:17.509Z,6.50
2019-04-20T04:13:29.860Z,8.23
2019-04-20T04:16:06.118Z,8.13
2019-04-20T04:18:38.676Z,7.43
2019-04-20T04:21:11.069Z,4.27
2019-04-20T04:23:48.728Z,3.93
2019-04-20T04:26:29.198Z,5.37
2019-04-20T04:28:53.714Z,6.23
2019-04-20T04:31:33.579Z,3.90
2019-04-20T04:34:02.573Z,5.43
2019-04-20T04:36:29.996Z,7.13
2019-04-20T04:39:11.363Z,6.70
2019-04-20T04:41:36.713Z,6.07
2019-04-20T04:44:08.673Z,3.20
2019-04-20T04:46:22.776Z,4.07
2019-04-20T04:48:58.327Z,6.73
2019-04-20T04:51:33.298Z,8.53
2019-04-20T04:54:03.934Z,4.70
2019-04-20T04:56:30.201Z,7.93
2019-04-20T04:59:00.354Z,7.17
2019-04-20T05:01:33.980Z,11.23
2019-04-20T05:04:23.277Z,8.07
2019-04-20T05:06:52.266Z,7.67
2019-04-20T05:09:10.646Z,4.60
2019-04-20T05:11:38.695Z,4.90
2019-04-20T05:14:15.041Z,5.53
2019-04-20T05:16:54.568Z,4.43
2019-04-20T05:19:36.822Z,5.57
2019-04-20T05:22:14.901Z,4.60
2019-04-20T05:24:51.835Z,4.60
2019-04-20T05:27:44.158Z,7.90
2019-04-20T05:29:51.282Z,3.90
2019-04-20T05:32:32.599Z,7.80
2019-04-20T05:35:17.984Z,4.70
2019-04-20T05:37:51.335Z,5.00
2019-04-20T05:40:22.309Z,5.00
2019-04-20T05:43:04.436Z,3.87
2019-04-20T05:45:32.694Z,4.30
2019-04-20T05:48:02.526Z,5.73
2019-04-20T05:50:36.561Z,6.50
2019-04-20T05:53:14.442Z,5.67
2019-04-20T05:55:46.997Z,8.50
2019-04-20T05:58:16.695Z,6.83
2019-04-20T06:00:56.803Z,4.50
2019-04-20T06:03:20.297Z,4.80
2019-04-20T06:05:59.406Z,5.63
2019-04-20T06:08:34.202Z,5.50
2019-04-20T06:10:56.007Z,4.63
2019-04-20T06:13:39.578Z,3.73
2019-04-20T06:16:40.386Z,4.30
2019-04-20T06:19:21.254Z,4.37
2019-04-20T06:22:02.150Z,5.53
2019-04-20T06:24:42.189Z,5.20
2019-04-20T06:27:16.030Z,5.67
2019-04-20T06:29:33.298Z,4.53
2019-04-20T06:32:17.337Z,5.93
2019-04-20T06:34:48.988Z,6.87
2019-04-20T06:37:02.053Z,4.30
2019-04-20T06:39:44.761Z,5.73
2019-04-20T06:42:14.722Z,5.73
2019-04-20T06:44:39.318Z,5.80
2019-04-20T06:47:30.737Z,6.13
2019-04-20T06:49:45.337Z,5.77
2019-04-20T06:55:21.831Z,5.37
2019-04-20T07:00:17.180Z,4.33
2019-04-20T07:05:21.182Z,5.37
2019-04-20T07:08:00.811Z,4.77
2019-04-20T07:10:38.117Z,6.17
2019-04-20T07:12:49.583Z,5.63
2019-04-20T07:15:22.930Z,8.17
2019-04-20T07:18:04.261Z,6.93
2019-04-20T07:20:46.298Z,5.03
2019-04-20T07:23:20.264Z,4.90
2019-04-20T07:25:43.299Z,5.90
2019-04-20T07:28:14.427Z,3.83
2019-04-20T07:30:46.452Z,8.13
2019-04-20T07:33:17.253Z,6.10
2019-04-20T07:35:46.210Z,7.57
2019-04-20T07:40:50.991Z,5.30
2019-04-20T07:43:19.759Z,5.33
2019-04-20T07:45:56.895Z,6.07
2019-04-20T07:48:24.836Z,3.63
2019-04-20T07:50:50.966Z,6.60
2019-04-20T07:53:26.033Z,5.57
2019-04-20T07:56:07.579Z,5.87
2019-04-20T07:58:28.526Z,4.50
2019-04-20T08:01:22.537Z,9.33
2019-04-20T08:03:59.918Z,3.97
2019-04-20T08:06:22.031Z,4.93
2019-04-20T08:09:02.469Z,4.13
2019-04-20T08:11:41.223Z,5.27
2019-04-20T08:14:18.875Z,5.27
2019-04-20T08:19:12.203Z,8.63
2019-04-20T08:21:48.684Z,3.60
2019-04-20T08:24:17.006Z,3.97
2019-04-20T08:26:41.652Z,4.87
2019-04-20T08:29:28.205Z,4.30
2019-04-20T08:32:32.551Z,5.07
2019-04-20T08:35:15.452Z,7.00
2019-04-20T08:37:45.923Z,4.13
2019-04-20T08:40:15.068Z,3.07
2019-04-20T08:42:57.230Z,3.40
2019-04-20T08:45:18.065Z,4.40
2019-04-20T08:47:51.924Z,4.43
2019-04-20T08:53:09.049Z,4.33
2019-04-20T08:55:19.561Z,6.30
2019-04-20T08:57:35.552Z,3.13
2019-04-20T09:00:09.029Z,3.57
2019-04-20T09:02:41.271Z,5.43
2019-04-20T09:05:29.476Z,4.50
2019-04-20T09:07:56.501Z,4.27
2019-04-20T09:10:39.265Z,3.83
2019-04-20T09:13:03.979Z,4.20
2019-04-20T09:15:21.092Z,4.43
2019-04-20T09:18:00.987Z,6.80
2019-04-20T09:20:36.533Z,6.77
2019-04-20T09:23:26.615Z,4.63
2019-04-20T09:28:28.565Z,6.20
2019-04-20T09:31:11.957Z,4.57
2019-04-20T09:34:08.833Z,5.67
2019-04-20T09:36:37.500Z,4.43
2019-04-20T09:39:16.418Z,4.50
2019-04-20T09:42:01.099Z,5.47
2019-04-20T09:44:35.909Z,5.13
2019-04-20T09:47:02.987Z,7.63
2019-04-20T09:49:43.870Z,4.87
2019-04-20T09:52:17.011Z,4.70
2019-04-20T09:54:52.770Z,4.13
2019-04-20T09:57:24.255Z,4.43
2019-04-20T09:59:59.867Z,8.93
2019-04-20T10:02:20.153Z,4.97
2019-04-20T10:04:43.927Z,4.73
2019-04-20T10:07:17.743Z,4.63
2019-04-20T10:09:46.995Z,4.83
2019-04-20T10:12:18.113Z,4.10
2019-04-20T10:14:49.057Z,7.03
2019-04-20T10:17:20.209Z,5.63
2019-04-20T10:19:51.368Z,4.90
2019-04-20T10:22:22.575Z,6.23
2019-04-20T10:24:57.173Z,4.80
2019-04-20T10:27:28.457Z,6.67
2019-04-20T10:30:01.210Z,4.17
2019-04-20T10:32:38.903Z,5.43
2019-04-20T10:35:02.591Z,7.10
2019-04-20T10:37:39.770Z,4.33
2019-04-20T10:40:11.507Z,3.83
2019-04-20T10:42:41.913Z,4.67
2019-04-20T10:45:12.868Z,3.20
2019-04-20T10:47:43.180Z,6.73
2019-04-20T10:50:13.769Z,4.33
2019-04-20T10:52:43.922Z,5.30
2019-04-20T10:55:14.683Z,8.27
2019-04-20T10:57:45.861Z,7.00
2019-04-20T11:00:17.509Z,9.07
2019-04-20T11:02:50.491Z,5.37
2019-04-20T11:05:20.374Z,5.60
2019-04-20T11:07:50.662Z,4.83
2019-04-20T11:10:25.721Z,5.10
2019-04-20T11:12:52.616Z,3.47
2019-04-20T11:15:24.075Z,4.43
2019-04-20T11:17:55.380Z,4.47
2019-04-20T11:20:27.580Z,3.20
2019-04-20T11:23:00.154Z,3.80
2019-04-20T11:25:30.444Z,5.20
2019-04-20T11:28:01.614Z,5.33
2019-04-20T11:30:32.266Z,6.40
2019-04-20T11:33:02.433Z,3.63
2019-04-20T11:35:37.251Z,3.67
2019-04-20T11:38:05.020Z,5.37
2019-04-20T11:40:35.286Z,3.93
2019-04-20T11:43:05.779Z,3.00
2019-04-20T11:45:36.410Z,3.70
2019-04-20T11:48:07.511Z,5.03
2019-04-20T11:50:37.822Z,4.23
2019-04-20T11:53:09.045Z,4.47
2019-04-20T11:55:40.400Z,3.43
2019-04-20T11:58:12.060Z,3.63
2019-04-20T12:00:54.586Z,2.63
2019-04-20T12:03:24.874Z,4.83
2019-04-20T12:05:55.211Z,5.73
2019-04-20T12:08:25.049Z,6.27
2019-04-20T12:10:59.475Z,3.30
2019-04-20T12:13:27.071Z,4.17
2019-04-20T12:15:57.197Z,3.70
2019-04-20T12:18:27.668Z,3.83
2019-04-20T12:20:58.895Z,4.40
2019-04-20T12:23:30.378Z,3.63
2019-04-20T12:26:02.013Z,5.83
2019-04-20T12:28:33.602Z,5.83
2019-04-20T12:31:11.399Z,3.73
2019-04-20T12:33:36.708Z,4.57
2019-04-20T12:36:08.469Z,5.60
2019-04-20T12:38:39.158Z,5.60
2019-04-20T12:41:12.430Z,2.83
2019-04-20T12:43:41.519Z,4.90
2019-04-20T12:46:16.591Z,4.00
2019-04-20T12:48:44.695Z,3.87
2019-04-20T12:51:15.549Z,4.43
2019-04-20T12:53:46.649Z,8.70
2019-04-20T12:56:17.002Z,3.47
2019-04-20T12:58:47.472Z,4.73
2019-04-20T13:01:20.428Z,3.67
2019-04-20T13:03:49.884Z,3.63
2019-04-20T13:06:20.010Z,2.93
2019-04-20T13:08:53.753Z,8.23
2019-04-20T13:11:29.077Z,4.50
2019-04-20T13:14:20.610Z,4.37
2019-04-20T13:16:52.193Z,3.03
2019-04-20T13:19:23.507Z,6.37
2019-04-20T13:21:54.790Z,2.90
2019-04-20T13:24:25.113Z,2.87
2019-04-20T13:26:55.291Z,2.67
2019-04-20T13:29:26.774Z,4.67
2019-04-20T13:31:58.367Z,6.83
2019-04-20T13:34:28.735Z,4.60
2019-04-20T13:37:00.043Z,6.80
2019-04-20T13:39:30.953Z,2.50
2019-04-20T13:42:10.330Z,3.20
2019-04-20T13:44:34.967Z,4.40
2019-04-20T13:47:05.201Z,2.60
2019-04-20T13:49:36.723Z,2.63
2019-04-20T13:52:06.981Z,2.50
2019-04-20T13:54:38.020Z,2.63
2019-04-20T13:57:11.177Z,4.73
2019-04-20T13:59:48.180Z,8.80
2019-04-20T14:02:36.280Z,2.87
2019-04-20T14:05:06.971Z,5.30
2019-04-20T14:07:37.644Z,3.13
2019-04-20T14:10:09.226Z,3.20
2019-04-20T14:12:53.314Z,2.40
2019-04-20T14:15:13.211Z,2.87
2019-04-20T14:17:43.463Z,3.30
2019-04-20T14:20:16.806Z,2.97
2019-04-20T14:22:45.605Z,2.30
2019-04-20T14:25:15.926Z,2.30
2019-04-20T14:27:46.672Z,4.00
2019-04-20T14:30:17.172Z,2.10
2019-04-20T14:32:48.214Z,3.73
2019-04-20T14:35:18.824Z,2.57
2019-04-20T14:37:49.935Z,2.40
2019-04-20T14:40:22.122Z,4.93
2019-04-20T14:42:55.099Z,4.97
2019-04-20T14:45:26.803Z,5.63
2019-04-20T14:47:57.479Z,2.50
2019-04-20T14:50:29.708Z,3.63
2019-04-20T14:52:59.986Z,6.47
2019-04-20T14:55:31.346Z,2.87
2019-04-20T14:58:06.148Z,2.80
2019-04-20T15:00:52.648Z,2.10
2019-04-20T15:03:33.129Z,2.70
2019-04-20T15:06:05.372Z,4.90
2019-04-20T15:08:36.786Z,3.57
2019-04-20T15:11:07.410Z,3.87
2019-04-20T15:13:38.747Z,4.83
2019-04-20T15:16:09.087Z,4.03
2019-04-20T15:19:00.928Z,4.83
2019-04-20T15:21:31.711Z,3.23
2019-04-20T15:24:01.837Z,3.73
2019-04-20T15:26:32.064Z,5.77
2019-04-20T15:29:02.228Z,3.50
2019-04-20T15:31:32.347Z,4.00
2019-04-20T15:34:03.327Z,2.87
2019-04-20T15:36:34.397Z,9.53
2019-04-20T15:39:07.301Z,2.93
2019-04-20T15:41:39.164Z,3.63
2019-04-20T15:44:09.355Z,1.80
2019-04-20T15:46:41.581Z,4.60
2019-04-20T15:49:13.615Z,3.10
2019-04-20T15:51:43.850Z,4.37
2019-04-20T15:54:13.966Z,4.17
2019-04-20T15:56:54.899Z,3.07
2019-04-20T15:59:16.788Z,2.40
2019-04-20T16:01:51.413Z,6.50
2019-04-20T16:04:54.328Z,3.97
2019-04-20T16:07:25.525Z,4.73
2019-04-20T16:09:56.865Z,2.60
2019-04-20T16:12:27.134Z,2.40
2019-04-20T16:14:57.762Z,2.83
2019-04-20T16:17:32.758Z,3.27
2019-04-20T16:20:06.429Z,2.93
2019-04-20T16:22:31.794Z,4.83
2019-04-20T16:25:17.272Z,2.23
2019-04-20T16:27:47.695Z,3.70
2019-04-20T16:30:19.848Z,2.00
2019-04-20T16:32:50.338Z,4.63
2019-04-20T16:35:20.531Z,4.27
2019-04-20T16:37:50.805Z,2.60
2019-04-20T16:40:21.137Z,2.17
2019-04-20T16:42:52.133Z,3.97
2019-04-20T16:45:23.262Z,2.07
2019-04-20T16:47:54.504Z,2.47
2019-04-20T16:50:24.837Z,1.97
2019-04-20T16:52:55.113Z,2.20
2019-04-20T16:55:25.247Z,3.27
2019-04-20T16:57:55.681Z,3.07
2019-04-20T17:00:27.424Z,2.17
2019-04-20T17:02:58.479Z,3.17
2019-04-20T17:05:29.252Z,2.27
2019-04-20T17:08:00.692Z,4.20
2019-04-20T17:10:31.080Z,2.57
2019-04-20T17:13:01.927Z,2.33
2019-04-20T17:15:32.286Z,6.57
2019-04-20T17:18:03.466Z,2.23
2019-04-20T17:20:34.706Z,2.00
2019-04-20T17:23:07.367Z,1.97
2019-04-20T17:25:37.793Z,6.10
2019-04-20T17:28:40.694Z,2.40
2019-04-20T17:31:19.671Z,2.67
2019-04-20T17:34:04.680Z,3.70
2019-04-20T17:36:31.131Z,1.97
2019-04-20T17:39:06.250Z,4.07
2019-04-20T17:41:52.668Z,6.43
2019-04-20T17:44:20.966Z,1.90
2019-04-20T17:46:50.383Z,2.73
2019-04-20T17:49:28.292Z,3.87
2019-04-20T17:52:05.809Z,4.00
2019-04-20T17:54:33.555Z,2.40
2019-04-20T17:57:08.735Z,4.07
2019-04-20T17:59:47.246Z,3.40
2019-04-20T18:02:44.364Z,3.27
2019-04-20T18:05:43.078Z,2.30
2019-04-20T18:08:16.499Z,2.73
2019-04-20T18:10:37.915Z,4.57
2019-04-20T18:13:06.183Z,2.30
2019-04-20T18:15:45.205Z,2.10
2019-04-20T18:18:44.136Z,2.20
2019-04-20T18:21:10.819Z,4.97
2019-04-20T18:23:44.777Z,3.47
2019-04-20T18:26:31.745Z,5.90
2019-04-20T18:29:10.635Z,4.87
2019-04-20T18:31:37.606Z,10.97
2019-04-20T18:34:29.164Z,4.93
2019-04-20T18:37:02.125Z,7.40
2019-04-20T18:39:38.723Z,7.43
2019-04-20T18:42:15.812Z,15.87
2019-04-20T18:44:54.613Z,8.13
2019-04-20T18:47:30.247Z,3.63
2019-04-20T18:49:49.221Z,3.57
2019-04-20T18:52:11.560Z,3.23
2019-04-20T18:54:44.983Z,10.90
2019-04-20T18:57:19.637Z,3.57
2019-04-20T18:59:49.448Z,5.40
2019-04-20T19:02:24.923Z,12.17
2019-04-20T19:04:50.071Z,8.10
2019-04-20T19:07:21.703Z,27.10
2019-04-20T19:09:53.266Z,7.43
2019-04-20T19:12:35.375Z,7.27
2019-04-20T19:15:28.205Z,8.47
2019-04-20T19:18:06.533Z,15.80
2019-04-20T19:20:28.895Z,33.13
2019-04-20T19:23:00.049Z,16.10
2019-04-20T19:25:33.127Z,5.07
2019-04-20T19:28:04.703Z,7.43
2019-04-20T19:30:40.736Z,7.10
2019-04-20T19:33:22.690Z,5.87
2019-04-20T19:35:46.585Z,10.13
2019-04-20T19:38:17.628Z,7.70
2019-04-20T19:40:51.517Z,6.37
2019-04-20T19:43:22.357Z,9.17
2019-04-20T19:46:24.377Z,8.60
2019-04-20T19:48:32.657Z,5.60
2019-04-20T19:51:12.977Z,7.30
2019-04-20T19:53:44.592Z,9.83
2019-04-20T19:56:05.332Z,5.03
2019-04-20T19:58:37.583Z,12.83
2019-04-20T20:01:01.141Z,7.27
2019-04-20T20:03:30.857Z,12.33
2019-04-20T20:06:01.525Z,10.33
2019-04-20T20:08:34.804Z,16.50
2019-04-20T20:11:05.193Z,8.60
2019-04-20T20:13:43.004Z,15.33
2019-04-20T20:16:14.453Z,9.60
2019-04-20T20:18:55.815Z,7.10
2019-04-20T20:21:23.746Z,7.40
2019-04-20T20:23:43.832Z,14.90
2019-04-20T20:26:23.100Z,8.97
2019-04-20T20:28:52.722Z,6.50
2019-04-20T20:31:28.288Z,4.30
2019-04-20T20:34:05.927Z,4.73
2019-04-20T20:36:28.935Z,5.17
2019-04-20T20:39:02.888Z,6.03
2019-04-20T20:41:33.166Z,31.37
2019-04-20T20:44:05.812Z,9.50
2019-04-20T20:46:37.814Z,22.47
2019-04-20T20:49:16.614Z,16.73
2019-04-20T20:51:55.901Z,14.60
2019-04-20T20:54:15.490Z,16.17
2019-04-20T20:56:47.366Z,30.77
2019-04-20T20:59:14.766Z,20.03
2019-04-20T21:01:50.303Z,31.37
2019-04-20T21:04:15.303Z,28.03
2019-04-20T21:06:46.805Z,45.83
2019-04-20T21:09:16.991Z,15.20
2019-04-20T21:11:51.131Z,26.83
2019-04-20T21:14:27.519Z,38.13
2019-04-20T21:17:04.149Z,37.73
2019-04-20T21:19:45.330Z,28.50
2019-04-20T21:22:04.827Z,16.77
2019-04-20T21:24:33.722Z,20.30
2019-04-20T21:27:09.960Z,9.47
2019-04-20T21:29:43.544Z,5.80
2019-04-20T21:32:12.182Z,10.97
2019-04-20T21:34:43.290Z,8.47
2019-04-20T21:37:18.938Z,8.87
2019-04-20T21:39:51.838Z,13.70
2019-04-20T21:42:20.827Z,9.37
2019-04-20T21:44:50.352Z,6.23
2019-04-20T21:47:26.995Z,7.80
2019-04-20T21:50:09.569Z,6.20
2019-04-20T21:52:35.294Z,9.50
2019-04-20T21:54:58.169Z,6.97
2019-04-20T21:57:32.495Z,5.30
2019-04-20T22:00:10.150Z,6.80
2019-04-20T22:02:44.672Z,8.03
2019-04-20T22:05:07.322Z,4.17
2019-04-20T22:07:38.608Z,14.87
2019-04-20T22:10:13.293Z,8.00
2019-04-20T22:12:48.606Z,8.30
2019-04-20T22:15:19.889Z,6.80
2019-04-20T22:17:44.767Z,5.83
2019-04-20T22:20:23.513Z,7.57
2019-04-20T22:22:59.644Z,6.13
2019-04-20T22:25:37.401Z,5.77
2019-04-20T22:27:50.474Z,4.47
2019-04-20T22:30:21.987Z,8.47
2019-04-20T22:32:56.568Z,5.47
2019-04-20T22:35:28.134Z,6.83
2019-04-20T22:38:10.490Z,4.83
2019-04-20T22:40:38.620Z,5.70
2019-04-20T22:43:08.862Z,5.10
2019-04-20T22:45:45.486Z,4.40
2019-04-20T22:48:15.461Z,9.77
2019-04-20T22:50:57.686Z,4.00
2019-04-20T22:53:31.277Z,2.60
2019-04-20T22:56:05.717Z,3.80
2019-04-20T22:58:34.762Z,3.17
2019-04-20T23:00:55.900Z,4.27
2019-04-20T23:03:23.227Z,3.20
2019-04-20T23:05:54.437Z,3.67
2019-04-20T23:08:24.806Z,2.37
2019-04-20T23:10:56.014Z,4.37
2019-04-20T23:13:33.374Z,2.73
2019-04-20T23:16:01.967Z,5.10
2019-04-20T23:18:31.933Z,3.33
2019-04-20T23:21:07.976Z,3.77
2019-04-20T23:23:35.483Z,3.70
2019-04-20T23:26:07.146Z,4.67
2019-04-20T23:28:41.662Z,2.87
2019-04-20T23:31:15.818Z,5.30
2019-04-20T23:33:41.044Z,4.47
2019-04-20T23:36:11.584Z,3.30
2019-04-20T23:38:48.073Z,2.10
2019-04-20T23:41:15.487Z,7.83
2019-04-20T23:43:54.016Z,4.50
2019-04-20T23:46:37.438Z,2.00
2019-04-20T23:49:54.135Z,6.30
2019-04-20T23:52:32.372Z,2.80
2019-04-20T23:54:48.976Z,4.83
2019-04-20T23:57:13.576Z,5.90
2019-04-20T23:59:46.291Z,2.37
